createdAt,value
2022-08-08T00:00:50.689Z,16.80
2022-08-08T00:02:42.913Z,16.70
2022-08-08T00:05:44.256Z,16.70
2022-08-08T00:09:04.422Z,16.70
2022-08-08T00:11:47.109Z,16.80
2022-08-08T00:14:59.908Z,16.80
2022-08-08T00:18:14.501Z,16.70
2022-08-08T00:20:52.380Z,16.60
2022-08-08T00:23:47.625Z,16.50
2022-08-08T00:26:29.370Z,16.50
2022-08-08T00:29:45.152Z,16.40
2022-08-08T00:32:47.778Z,16.40
2022-08-08T00:35:48.933Z,16.40
2022-08-08T00:38:54.615Z,16.40
2022-08-08T00:42:08.812Z,16.30
2022-08-08T00:45:32.153Z,16.20
2022-08-08T00:48:35.273Z,16.20
2022-08-08T00:51:38.916Z,16.10
2022-08-08T00:54:58.541Z,16.00
2022-08-08T00:58:13.569Z,16.00
2022-08-08T01:01:19.681Z,16.10
2022-08-08T01:04:35.457Z,16.10
2022-08-08T01:10:50.782Z,16.30
2022-08-08T01:13:58.407Z,16.50
2022-08-08T02:25:46.887Z,15.30
2022-08-08T02:28:51.614Z,15.10
2022-08-08T02:32:05.476Z,15.10
2022-08-08T02:35:23.120Z,15.00
2022-08-08T02:42:04.026Z,15.10
2022-08-08T02:45:24.722Z,15.00
2022-08-08T02:48:25.828Z,14.90
2022-08-08T02:51:29.877Z,14.90
2022-08-08T02:54:56.752Z,14.80
2022-08-08T02:58:03.403Z,14.80
2022-08-08T03:01:05.372Z,14.80
2022-08-08T03:05:04.227Z,14.80
2022-08-08T03:08:15.633Z,14.70
2022-08-08T03:11:48.131Z,14.60
2022-08-08T03:16:02.364Z,14.60
2022-08-08T03:18:04.810Z,14.60
2022-08-08T03:20:51.596Z,14.50
2022-08-08T03:23:30.274Z,14.50
2022-08-08T03:26:07.496Z,14.60
2022-08-08T03:28:46.106Z,14.50
2022-08-08T03:32:06.579Z,14.50
2022-08-08T03:34:29.644Z,14.40
2022-08-08T03:36:57.229Z,14.30
2022-08-08T03:39:24.774Z,14.30
2022-08-08T03:42:13.125Z,14.30
2022-08-08T03:44:47.765Z,14.30
2022-08-08T03:47:22.247Z,14.40
2022-08-08T03:50:01.149Z,14.50
2022-08-08T03:52:45.043Z,14.50
2022-08-08T03:55:20.342Z,14.60
2022-08-08T03:58:34.371Z,14.60
2022-08-08T04:01:23.571Z,14.50
2022-08-08T04:03:59.210Z,14.50
2022-08-08T04:06:31.695Z,14.40
2022-08-08T04:09:08.796Z,14.40
2022-08-08T04:11:57.701Z,14.30
2022-08-08T04:14:36.457Z,14.20
2022-08-08T04:17:15.619Z,14.20
2022-08-08T04:19:56.302Z,14.10
2022-08-08T04:22:29.610Z,14.20
2022-08-08T04:24:58.507Z,14.30
2022-08-08T04:28:02.723Z,14.30
2022-08-08T04:30:18.145Z,14.20
2022-08-08T04:32:50.399Z,14.20
2022-08-08T04:35:22.814Z,14.20
2022-08-08T04:37:55.043Z,14.10
2022-08-08T04:40:30.957Z,14.00
2022-08-08T04:43:01.491Z,14.20
2022-08-08T04:45:50.892Z,14.30
2022-08-08T04:48:22.084Z,14.10
2022-08-08T04:50:50.466Z,14.20
2022-08-08T04:54:26.916Z,14.20
2022-08-08T04:56:13.916Z,14.30
2022-08-08T04:58:41.038Z,14.20
2022-08-08T05:01:11.004Z,14.20
2022-08-08T05:04:10.001Z,14.30
2022-08-08T05:06:40.058Z,14.30
2022-08-08T05:09:08.676Z,14.40
2022-08-08T05:11:40.665Z,14.50
2022-08-08T05:14:12.891Z,14.50
2022-08-08T05:16:53.442Z,14.60
2022-08-08T05:20:08.875Z,14.60
2022-08-08T05:22:17.577Z,14.70
2022-08-08T05:24:48.748Z,14.80
2022-08-08T05:27:19.106Z,14.90
2022-08-08T05:29:50.473Z,14.90
2022-08-08T05:32:24.570Z,15.10
2022-08-08T05:34:53.694Z,15.20
2022-08-08T05:37:49.279Z,15.20
2022-08-08T05:40:17.235Z,15.30
2022-08-08T05:42:51.423Z,15.30
2022-08-08T05:45:30.809Z,15.40
2022-08-08T05:48:08.543Z,15.30
2022-08-08T05:50:38.523Z,15.40
2022-08-08T05:53:54.576Z,15.50
2022-08-08T05:56:10.376Z,15.60
2022-08-08T05:58:57.169Z,15.70
2022-08-08T06:01:52.720Z,16.00
2022-08-08T06:04:23.268Z,16.20
2022-08-08T06:06:56.659Z,16.40
2022-08-08T06:10:00.666Z,16.60
2022-08-08T06:12:29.926Z,16.90
2022-08-08T06:15:06.358Z,16.90
2022-08-08T06:17:50.963Z,17.00
2022-08-08T06:20:26.622Z,16.90
2022-08-08T06:22:56.157Z,17.10
2022-08-08T06:26:34.993Z,17.20
2022-08-08T06:28:29.252Z,17.30
2022-08-08T06:31:00.102Z,17.40
2022-08-08T06:34:27.461Z,17.60
2022-08-08T06:36:53.503Z,17.70
2022-08-08T06:39:22.515Z,18.00
2022-08-08T06:41:58.951Z,18.00
2022-08-08T06:44:42.506Z,18.10
2022-08-08T06:47:10.797Z,18.40
2022-08-08T06:49:56.542Z,18.40
2022-08-08T06:52:27.690Z,18.50
2022-08-08T06:54:58.726Z,18.50
2022-08-08T06:57:29.378Z,18.80
2022-08-08T07:00:12.774Z,18.80
2022-08-08T07:02:46.129Z,18.90
2022-08-08T07:05:20.648Z,19.00
2022-08-08T07:08:17.950Z,19.00
2022-08-08T07:10:56.821Z,19.00
2022-08-08T07:13:38.536Z,19.20
2022-08-08T07:16:51.160Z,19.30
2022-08-08T07:19:59.893Z,19.60
2022-08-08T07:23:02.258Z,20.00
2022-08-08T07:25:39.027Z,20.10
2022-08-08T07:28:18.745Z,20.20
2022-08-08T07:30:49.179Z,20.50
2022-08-08T07:33:17.636Z,20.70
2022-08-08T07:35:48.489Z,20.90
2022-08-08T07:38:20.872Z,20.80
2022-08-08T07:41:04.500Z,21.10
2022-08-08T07:43:36.910Z,21.40
2022-08-08T07:46:23.943Z,21.60
2022-08-08T07:48:57.420Z,21.60
2022-08-08T07:51:45.058Z,21.70
2022-08-08T07:54:50.622Z,21.70
2022-08-08T07:58:03.634Z,21.90
2022-08-08T08:00:57.345Z,22.00
2022-08-08T08:03:53.590Z,22.20
2022-08-08T08:06:27.650Z,22.30
2022-08-08T08:09:09.055Z,22.50
2022-08-08T08:11:51.435Z,22.60
2022-08-08T08:14:44.699Z,22.80
2022-08-08T08:17:18.176Z,22.70
2022-08-08T08:19:50.494Z,22.70
2022-08-08T08:22:31.326Z,22.70
2022-08-08T08:25:07.668Z,22.80
2022-08-08T08:27:36.914Z,23.10
2022-08-08T08:30:05.899Z,23.00
2022-08-08T08:32:41.052Z,23.20
2022-08-08T08:35:29.337Z,23.30
2022-08-08T08:38:17.723Z,23.60
2022-08-08T08:40:48.673Z,23.50
2022-08-08T08:43:20.543Z,23.20
2022-08-08T08:45:58.324Z,23.70
2022-08-08T08:48:33.840Z,23.80
2022-08-08T08:51:03.382Z,24.10
2022-08-08T08:53:56.473Z,23.90
2022-08-08T08:56:31.939Z,24.00
2022-08-08T08:59:06.314Z,24.10
2022-08-08T09:01:43.848Z,24.30
2022-08-08T09:04:31.746Z,24.30
2022-08-08T09:07:14.753Z,24.30
2022-08-08T09:09:55.107Z,24.70
2022-08-08T09:12:31.566Z,24.90
2022-08-08T09:15:00.783Z,25.10
2022-08-08T09:17:41.742Z,25.10
2022-08-08T09:22:01.641Z,25.00
2022-08-08T09:23:11.195Z,25.40
2022-08-08T09:25:54.641Z,25.60
2022-08-08T09:28:37.483Z,25.50
2022-08-08T09:31:26.018Z,25.10
2022-08-08T09:34:31.196Z,25.40
2022-08-08T09:37:29.240Z,25.60
2022-08-08T09:40:03.863Z,25.90
2022-08-08T09:42:51.590Z,26.10
2022-08-08T09:45:55.408Z,25.70
2022-08-08T09:48:28.952Z,25.90
2022-08-08T09:51:05.147Z,25.70
2022-08-08T09:54:06.774Z,25.90
2022-08-08T09:56:46.554Z,25.90
2022-08-08T09:59:57.071Z,26.50
2022-08-08T10:02:28.751Z,26.30
2022-08-08T10:05:07.021Z,26.40
2022-08-08T10:08:01.246Z,26.60
2022-08-08T10:10:51.336Z,26.70
2022-08-08T10:13:26.195Z,26.80
2022-08-08T10:16:03.499Z,27.30
2022-08-08T10:18:37.391Z,27.50
2022-08-08T10:21:25.714Z,27.60
2022-08-08T10:24:03.165Z,27.10
2022-08-08T10:26:52.176Z,27.10
2022-08-08T10:29:59.824Z,27.60
2022-08-08T10:32:32.576Z,27.60
2022-08-08T10:35:20.389Z,27.60
2022-08-08T10:38:05.327Z,27.80
2022-08-08T10:40:33.246Z,28.00
2022-08-08T10:43:05.508Z,28.20
2022-08-08T10:45:55.701Z,27.90
2022-08-08T10:48:57.431Z,28.10
2022-08-08T10:51:30.830Z,28.50
2022-08-08T10:54:10.438Z,28.50
2022-08-08T10:56:43.062Z,28.40
2022-08-08T10:59:14.182Z,28.70
2022-08-08T11:01:54.316Z,29.10
2022-08-08T11:04:29.257Z,29.20
2022-08-08T11:07:06.801Z,29.20
2022-08-08T11:09:34.359Z,29.00
2022-08-08T11:12:12.457Z,29.20
2022-08-08T11:14:57.139Z,29.00
2022-08-08T11:17:59.384Z,29.40
2022-08-08T11:20:27.732Z,29.20
2022-08-08T11:23:05.781Z,29.20
2022-08-08T11:25:52.304Z,28.90
2022-08-08T11:28:29.801Z,29.70
2022-08-08T11:31:00.855Z,29.70
2022-08-08T11:33:51.143Z,29.50
2022-08-08T11:36:22.060Z,29.60
2022-08-08T11:38:55.557Z,30.30
2022-08-08T11:41:33.507Z,30.30
2022-08-08T11:44:02.254Z,29.50
2022-08-08T11:46:32.849Z,29.40
2022-08-08T11:49:05.180Z,30.10
2022-08-08T11:51:38.564Z,30.30
2022-08-08T11:54:27.043Z,30.20
2022-08-08T11:56:58.010Z,30.40
2022-08-08T12:00:00.709Z,30.80
2022-08-08T12:02:32.227Z,31.30
2022-08-08T12:05:13.473Z,30.80
2022-08-08T12:07:52.023Z,30.80
2022-08-08T12:10:30.402Z,31.00
2022-08-08T12:13:03.964Z,31.10
2022-08-08T12:15:42.532Z,31.10
2022-08-08T12:18:28.703Z,30.80
2022-08-08T12:20:58.861Z,30.70
2022-08-08T12:23:43.862Z,31.40
2022-08-08T12:26:32.135Z,31.60
2022-08-08T12:29:40.141Z,31.80
2022-08-08T12:32:21.010Z,31.50
2022-08-08T12:35:13.009Z,31.70
2022-08-08T12:38:01.553Z,32.20
2022-08-08T12:40:56.459Z,31.80
2022-08-08T12:43:31.835Z,32.10
2022-08-08T12:46:02.959Z,31.90
2022-08-08T12:48:37.980Z,31.30
2022-08-08T12:51:07.782Z,31.20
2022-08-08T12:53:58.626Z,31.70
2022-08-08T12:56:39.753Z,32.20
2022-08-08T12:59:36.345Z,32.40
2022-08-08T13:02:34.626Z,32.00
2022-08-08T13:05:15.678Z,32.00
2022-08-08T13:08:03.898Z,31.90
2022-08-08T13:10:36.631Z,31.70
2022-08-08T13:13:35.487Z,32.50
2022-08-08T13:16:25.724Z,32.10
2022-08-08T13:19:06.560Z,32.40
2022-08-08T13:21:52.993Z,32.60
2022-08-08T13:24:40.702Z,33.00
2022-08-08T13:27:20.597Z,32.60
2022-08-08T13:30:20.919Z,32.70
2022-08-08T13:32:58.846Z,32.50
2022-08-08T13:35:38.636Z,32.80
2022-08-08T13:38:13.152Z,32.20
2022-08-08T13:40:44.826Z,31.80
2022-08-08T13:43:16.947Z,31.60
2022-08-08T13:45:48.533Z,32.80
2022-08-08T13:48:25.272Z,32.20
2022-08-08T13:50:57.641Z,32.10
2022-08-08T13:53:53.198Z,32.70
2022-08-08T13:56:44.895Z,32.30
2022-08-08T13:59:48.181Z,32.90
2022-08-08T14:02:31.278Z,33.40
2022-08-08T14:05:22.365Z,32.40
2022-08-08T14:07:59.617Z,32.60
2022-08-08T14:10:32.930Z,33.00
2022-08-08T14:13:10.093Z,33.30
2022-08-08T14:16:16.145Z,33.50
2022-08-08T14:19:10.601Z,32.50
2022-08-08T14:21:51.917Z,33.30
2022-08-08T14:24:31.570Z,33.10
2022-08-08T14:26:58.640Z,33.70
2022-08-08T14:29:30.027Z,33.40
2022-08-08T14:32:10.601Z,33.60
2022-08-08T14:34:42.180Z,33.50
2022-08-08T14:37:13.283Z,33.70
2022-08-08T14:39:53.860Z,33.50
2022-08-08T14:42:29.833Z,32.40
2022-08-08T14:45:00.595Z,33.20
2022-08-08T14:47:28.249Z,33.00
2022-08-08T14:50:14.214Z,33.00
2022-08-08T14:52:59.687Z,33.00
2022-08-08T14:55:35.321Z,32.20
2022-08-08T14:58:11.592Z,32.90
2022-08-08T15:00:44.265Z,32.90
2022-08-08T15:03:16.047Z,33.40
2022-08-08T15:05:54.006Z,33.40
2022-08-08T15:08:35.385Z,33.90
2022-08-08T15:11:11.613Z,33.10
2022-08-08T15:14:01.731Z,33.90
2022-08-08T15:16:34.782Z,33.50
2022-08-08T15:19:02.825Z,33.80
2022-08-08T15:21:30.592Z,33.40
2022-08-08T15:23:57.967Z,33.00
2022-08-08T15:26:28.744Z,32.80
2022-08-08T15:28:56.645Z,32.80
2022-08-08T15:31:55.633Z,32.10
2022-08-08T15:34:28.868Z,32.70
2022-08-08T15:37:02.307Z,32.90
2022-08-08T15:39:37.715Z,32.70
2022-08-08T15:42:13.347Z,32.80
2022-08-08T15:44:55.241Z,33.80
2022-08-08T15:47:23.948Z,33.60
2022-08-08T15:49:53.177Z,33.00
2022-08-08T15:52:22.086Z,33.20
2022-08-08T15:54:51.594Z,32.90
2022-08-08T15:57:20.694Z,33.20
2022-08-08T16:00:25.522Z,33.30
2022-08-08T16:02:41.219Z,33.00
2022-08-08T16:05:17.275Z,33.20
2022-08-08T16:07:53.018Z,34.30
2022-08-08T16:13:12.126Z,35.30
2022-08-08T16:13:33.554Z,34.10
2022-08-08T16:16:16.594Z,34.10
2022-08-08T16:18:57.279Z,34.00
2022-08-08T16:21:31.451Z,34.20
2022-08-08T16:24:00.886Z,34.00
2022-08-08T16:26:33.832Z,33.50
2022-08-08T16:29:08.107Z,33.40
2022-08-08T16:31:40.282Z,33.80
2022-08-08T16:34:08.787Z,33.70
2022-08-08T16:36:36.786Z,34.50
2022-08-08T16:39:09.930Z,34.40
2022-08-08T16:41:53.219Z,34.50
2022-08-08T16:44:28.072Z,34.00
2022-08-08T16:47:31.568Z,34.80
2022-08-08T16:50:15.129Z,34.80
2022-08-08T16:55:03.011Z,35.10
2022-08-08T16:55:54.154Z,34.20
2022-08-08T16:58:20.760Z,33.00
2022-08-08T17:00:48.658Z,32.40
2022-08-08T17:03:24.339Z,32.30
2022-08-08T17:05:53.882Z,32.50
2022-08-08T17:08:23.519Z,33.10
2022-08-08T17:10:57.489Z,32.20
2022-08-08T17:13:40.768Z,31.20
2022-08-08T17:16:15.377Z,31.50
2022-08-08T17:18:42.795Z,31.50
2022-08-08T17:21:13.812Z,31.90
2022-08-08T17:24:00.400Z,31.90
2022-08-08T17:26:29.389Z,31.30
2022-08-08T17:28:57.296Z,29.70
2022-08-08T17:31:45.761Z,29.20
2022-08-08T17:34:36.986Z,29.20
2022-08-08T17:37:06.718Z,29.10
2022-08-08T17:40:04.740Z,28.50
2022-08-08T17:42:24.434Z,28.60
2022-08-08T17:44:52.668Z,28.70
2022-08-08T17:47:27.310Z,28.40
2022-08-08T17:50:00.965Z,28.40
2022-08-08T17:52:34.059Z,27.90
2022-08-08T17:55:05.804Z,27.70
2022-08-08T17:57:37.398Z,27.70
2022-08-08T18:00:13.356Z,27.40
2022-08-08T18:02:52.653Z,27.40
2022-08-08T18:05:48.840Z,27.30
2022-08-08T18:08:24.852Z,27.00
2022-08-08T18:11:15.403Z,26.90
2022-08-08T18:13:47.434Z,26.90
2022-08-08T18:16:17.092Z,26.70
2022-08-08T18:18:56.316Z,26.50
2022-08-08T18:22:00.365Z,26.30
2022-08-08T18:24:19.722Z,26.10
2022-08-08T18:26:53.646Z,25.90
2022-08-08T18:29:41.421Z,25.70
2022-08-08T18:32:09.780Z,25.40
2022-08-08T18:34:40.390Z,25.50
2022-08-08T18:37:10.294Z,25.30
2022-08-08T18:39:57.402Z,25.00
2022-08-08T18:42:24.477Z,24.80
2022-08-08T18:44:55.090Z,24.60
2022-08-08T18:47:25.171Z,24.50
2022-08-08T18:49:58.947Z,24.40
2022-08-08T18:52:30.082Z,24.20
2022-08-08T18:54:59.550Z,24.20
2022-08-08T18:57:32.022Z,24.10
2022-08-08T19:00:15.935Z,24.00
2022-08-08T19:02:55.273Z,24.00
2022-08-08T19:05:30.489Z,23.90
2022-08-08T19:08:29.300Z,23.70
2022-08-08T19:10:59.233Z,23.80
2022-08-08T19:13:53.223Z,23.50
2022-08-08T19:16:20.268Z,23.30
2022-08-08T19:19:00.474Z,23.20
2022-08-08T19:21:33.278Z,23.10
2022-08-08T19:24:05.767Z,23.10
2022-08-08T19:26:37.669Z,23.20
2022-08-08T19:29:06.049Z,23.20
2022-08-08T19:31:35.316Z,23.10
2022-08-08T19:34:29.802Z,23.00
2022-08-08T19:36:58.585Z,22.70
2022-08-08T19:39:34.826Z,22.50
2022-08-08T19:42:02.402Z,22.40
2022-08-08T19:44:45.828Z,22.20
2022-08-08T19:47:14.378Z,22.10
2022-08-08T19:49:43.595Z,22.10
2022-08-08T19:52:34.698Z,22.10
2022-08-08T19:55:11.545Z,22.00
2022-08-08T19:57:43.131Z,21.80
2022-08-08T20:00:29.329Z,21.80
2022-08-08T20:03:00.156Z,21.70
2022-08-08T20:06:12.684Z,21.70
2022-08-08T20:08:38.845Z,21.60
2022-08-08T20:11:01.948Z,21.40
2022-08-08T20:14:31.803Z,21.40
2022-08-08T20:16:19.119Z,21.50
2022-08-08T20:18:52.860Z,21.30
2022-08-08T20:21:22.940Z,21.20
2022-08-08T20:23:57.391Z,21.20
2022-08-08T20:26:27.482Z,21.10
2022-08-08T20:28:57.101Z,21.00
2022-08-08T20:31:24.218Z,20.90
2022-08-08T20:34:29.764Z,20.90
2022-08-08T20:37:03.287Z,20.80
2022-08-08T20:39:39.054Z,20.80
2022-08-08T20:42:09.125Z,20.70
2022-08-08T20:44:37.500Z,20.70
2022-08-08T20:47:22.702Z,20.70
2022-08-08T20:49:54.495Z,20.70
2022-08-08T20:52:24.735Z,20.70
2022-08-08T20:54:52.108Z,20.70
2022-08-08T20:57:20.948Z,20.60
2022-08-08T20:59:48.668Z,20.60
2022-08-08T21:02:25.904Z,20.60
2022-08-08T21:04:57.455Z,20.50
2022-08-08T21:07:47.009Z,20.50
2022-08-08T21:10:16.590Z,20.40
2022-08-08T21:12:44.498Z,20.30
2022-08-08T21:15:16.741Z,20.30
2022-08-08T21:18:01.158Z,20.30
2022-08-08T21:20:34.400Z,20.10
2022-08-08T21:23:02.909Z,20.10
2022-08-08T21:25:36.196Z,20.10
2022-08-08T21:28:09.681Z,19.90
2022-08-08T21:30:42.627Z,19.90
2022-08-08T21:33:12.485Z,19.90
2022-08-08T21:36:17.323Z,19.80
2022-08-08T21:38:27.340Z,19.80
2022-08-08T21:40:56.978Z,19.80
2022-08-08T21:43:33.101Z,19.70
2022-08-08T21:48:06.767Z,19.60
2022-08-08T21:48:54.669Z,19.60
2022-08-08T21:54:18.340Z,19.60
2022-08-08T21:54:52.594Z,19.50
2022-08-08T21:57:08.247Z,19.40
2022-08-08T22:00:02.600Z,19.40
2022-08-08T22:02:24.909Z,19.40
2022-08-08T22:04:53.403Z,19.30
2022-08-08T22:07:25.974Z,19.20
2022-08-08T22:10:02.095Z,19.20
2022-08-08T22:12:29.098Z,19.10
2022-08-08T22:14:56.113Z,19.10
2022-08-08T22:17:24.439Z,19.00
2022-08-08T22:20:11.223Z,18.90
2022-08-08T22:22:38.762Z,18.80
2022-08-08T22:25:17.777Z,18.80
2022-08-08T22:28:03.986Z,18.80
2022-08-08T22:30:39.954Z,18.70
2022-08-08T22:34:05.073Z,18.70
2022-08-08T22:36:05.663Z,18.60
2022-08-08T22:38:48.088Z,18.50
2022-08-08T22:41:21.705Z,18.50
2022-08-08T22:44:01.198Z,18.60
2022-08-08T22:46:33.035Z,18.50
2022-08-08T22:49:00.671Z,18.40
2022-08-08T22:51:29.512Z,18.40
2022-08-08T22:54:30.623Z,18.30
2022-08-08T22:56:58.716Z,18.30
2022-08-08T22:59:26.358Z,18.20
2022-08-08T23:02:12.739Z,18.20
2022-08-08T23:04:56.046Z,18.20
2022-08-08T23:07:25.093Z,18.20
2022-08-08T23:10:12.135Z,18.10
2022-08-08T23:12:47.491Z,18.00
2022-08-08T23:16:37.679Z,18.00
2022-08-08T23:18:02.501Z,18.10
2022-08-08T23:20:31.371Z,18.00
2022-08-08T23:22:58.807Z,18.00
2022-08-08T23:25:26.693Z,18.00
2022-08-08T23:27:54.622Z,18.00
2022-08-08T23:30:22.813Z,18.10
2022-08-08T23:32:50.994Z,18.10
2022-08-08T23:35:18.769Z,18.10
2022-08-08T23:38:02.013Z,18.00
2022-08-08T23:40:31.869Z,18.00
2022-08-08T23:42:58.983Z,17.90
2022-08-08T23:49:05.627Z,17.90
2022-08-08T23:49:08.548Z,17.90
2022-08-08T23:51:12.723Z,17.90
2022-08-08T23:54:05.707Z,17.80
2022-08-08T23:56:40.868Z,17.80
2022-08-08T23:59:17.169Z,17.80
